sensor_id;sensor_type;location;lat;lon;timestamp;pressure;altitude;pressure_sealevel;temperature;humidity
72921;BME280;61064;51.654;5.476;2023-08-20T00:00:08;102062.25;;;20.11;86.64
72921;BME280;61064;51.654;5.476;2023-08-20T00:02:36;102080.22;;;20.12;86.65
72921;BME280;61064;51.654;5.476;2023-08-20T00:05:02;102072.25;;;20.05;86.60
72921;BME280;61064;51.654;5.476;2023-08-20T00:07:32;102089.38;;;20.05;86.59
72921;BME280;61064;51.654;5.476;2023-08-20T00:09:58;102074.06;;;20.01;86.68
72921;BME280;61064;51.654;5.476;2023-08-20T00:12:24;102073.25;;;19.96;86.72
72921;BME280;61064;51.654;5.476;2023-08-20T00:14:52;102060.69;;;19.93;86.92
72921;BME280;61064;51.654;5.476;2023-08-20T00:17:19;102066.09;;;19.93;87.35
72921;BME280;61064;51.654;5.476;2023-08-20T00:19:45;102073.31;;;19.93;86.99
72921;BME280;61064;51.654;5.476;2023-08-20T00:22:10;102074.19;;;19.93;87.06
72921;BME280;61064;51.654;5.476;2023-08-20T00:24:36;102073.31;;;19.91;87.04
72921;BME280;61064;51.654;5.476;2023-08-20T00:27:02;102071.50;;;19.92;87.25
72921;BME280;61064;51.654;5.476;2023-08-20T00:29:27;102070.59;;;19.93;87.00
72921;BME280;61064;51.654;5.476;2023-08-20T00:31:52;102065.22;;;19.90;87.06
72921;BME280;61064;51.654;5.476;2023-08-20T00:34:18;102068.88;;;19.87;87.04
72921;BME280;61064;51.654;5.476;2023-08-20T00:36:43;102068.03;;;19.81;87.12
72921;BME280;61064;51.654;5.476;2023-08-20T00:39:08;102080.66;;;19.82;87.20
72921;BME280;61064;51.654;5.476;2023-08-20T00:41:34;102077.06;;;19.78;87.17
72921;BME280;61064;51.654;5.476;2023-08-20T00:43:59;102078.91;;;19.75;87.22
72921;BME280;61064;51.654;5.476;2023-08-20T00:46:24;102097.81;;;19.75;87.22
72921;BME280;61064;51.654;5.476;2023-08-20T00:48:50;102098.78;;;19.69;87.35
72921;BME280;61064;51.654;5.476;2023-08-20T00:51:15;102085.34;;;19.66;87.46
72921;BME280;61064;51.654;5.476;2023-08-20T00:53:41;102093.44;;;19.66;87.43
72921;BME280;61064;51.654;5.476;2023-08-20T00:56:07;102098.84;;;19.62;87.49
72921;BME280;61064;51.654;5.476;2023-08-20T00:58:33;102105.22;;;19.59;87.43
72921;BME280;61064;51.654;5.476;2023-08-20T01:00:58;102116.00;;;19.58;87.42
72921;BME280;61064;51.654;5.476;2023-08-20T01:03:24;102117.84;;;19.56;87.70
72921;BME280;61064;51.654;5.476;2023-08-20T01:05:52;102118.75;;;19.55;87.79
72921;BME280;61064;51.654;5.476;2023-08-20T01:08:32;102121.47;;;19.53;87.85
72921;BME280;61064;51.654;5.476;2023-08-20T01:11:15;102125.97;;;19.54;87.92
72921;BME280;61064;51.654;5.476;2023-08-20T01:13:45;102120.56;;;19.51;88.04
72921;BME280;61064;51.654;5.476;2023-08-20T01:16:11;102128.66;;;19.52;88.14
72921;BME280;61064;51.654;5.476;2023-08-20T01:18:36;102128.66;;;19.52;88.17
72921;BME280;61064;51.654;5.476;2023-08-20T01:21:05;102125.06;;;19.52;88.19
72921;BME280;61064;51.654;5.476;2023-08-20T01:24:05;102129.56;;;19.53;88.29
72921;BME280;61064;51.654;5.476;2023-08-20T01:26:37;102133.16;;;19.54;88.44
72921;BME280;61064;51.654;5.476;2023-08-20T01:29:05;102125.97;;;19.54;88.26
72921;BME280;61064;51.654;5.476;2023-08-20T01:31:32;102131.31;;;19.57;88.39
72921;BME280;61064;51.654;5.476;2023-08-20T01:33:58;102129.50;;;19.58;88.46
72921;BME280;61064;51.654;5.476;2023-08-20T01:36:24;102127.69;;;19.60;88.32
72921;BME280;61064;51.654;5.476;2023-08-20T01:38:49;102126.81;;;19.59;88.34
72921;BME280;61064;51.654;5.476;2023-08-20T01:41:16;102126.78;;;19.61;88.34
72921;BME280;61064;51.654;5.476;2023-08-20T01:43:41;102129.50;;;19.61;88.24
72921;BME280;61064;51.654;5.476;2023-08-20T01:46:07;102128.53;;;19.65;88.51
72921;BME280;61064;51.654;5.476;2023-08-20T01:48:34;102124.06;;;19.64;88.13
72921;BME280;61064;51.654;5.476;2023-08-20T01:50:59;102136.63;;;19.66;88.22
72921;BME280;61064;51.654;5.476;2023-08-20T01:53:24;102141.13;;;19.66;87.71
72921;BME280;61064;51.654;5.476;2023-08-20T01:55:50;102151.91;;;19.67;87.50
72921;BME280;61064;51.654;5.476;2023-08-20T01:58:15;102143.84;;;19.66;87.72
72921;BME280;61064;51.654;5.476;2023-08-20T02:00:40;102142.03;;;19.65;87.72
72921;BME280;61064;51.654;5.476;2023-08-20T02:03:06;102146.56;;;19.64;87.68
72921;BME280;61064;51.654;5.476;2023-08-20T02:05:31;102159.09;;;19.68;87.55
72921;BME280;61064;51.654;5.476;2023-08-20T02:07:57;102167.25;;;19.67;87.49
72921;BME280;61064;51.654;5.476;2023-08-20T02:10:22;102176.22;;;19.67;87.60
72921;BME280;61064;51.654;5.476;2023-08-20T02:12:48;102169.94;;;19.67;87.65
72921;BME280;61064;51.654;5.476;2023-08-20T02:15:13;102180.75;;;19.67;87.43
72921;BME280;61064;51.654;5.476;2023-08-20T02:17:38;102163.66;;;19.65;87.38
72921;BME280;61064;51.654;5.476;2023-08-20T02:20:04;102163.66;;;19.65;87.68
72921;BME280;61064;51.654;5.476;2023-08-20T02:22:30;102153.75;;;19.64;87.67
72921;BME280;61064;51.654;5.476;2023-08-20T02:24:55;102155.56;;;19.65;87.73
72921;BME280;61064;51.654;5.476;2023-08-20T02:27:21;102159.13;;;19.67;87.62
72921;BME280;61064;51.654;5.476;2023-08-20T02:29:46;102152.84;;;19.65;87.62
72921;BME280;61064;51.654;5.476;2023-08-20T02:32:12;102157.34;;;19.66;87.52
72921;BME280;61064;51.654;5.476;2023-08-20T02:34:37;102164.56;;;19.62;87.53
72921;BME280;61064;51.654;5.476;2023-08-20T02:37:02;102164.56;;;19.62;87.53
72921;BME280;61064;51.654;5.476;2023-08-20T02:39:28;102166.41;;;19.57;87.54
72921;BME280;61064;51.654;5.476;2023-08-20T02:41:53;102171.81;;;19.57;87.64
72921;BME280;61064;51.654;5.476;2023-08-20T02:44:18;102162.84;;;19.54;87.51
72921;BME280;61064;51.654;5.476;2023-08-20T02:46:44;102175.47;;;19.51;87.62
72921;BME280;61064;51.654;5.476;2023-08-20T02:49:10;102171.00;;;19.49;87.55
72921;BME280;61064;51.654;5.476;2023-08-20T02:51:35;102161.13;;;19.46;87.56
72921;BME280;61064;51.654;5.476;2023-08-20T02:54:02;102158.44;;;19.42;87.61
72921;BME280;61064;51.654;5.476;2023-08-20T02:56:28;102162.06;;;19.38;87.84
72921;BME280;61064;51.654;5.476;2023-08-20T02:58:53;102163.88;;;19.36;87.90
72921;BME280;61064;51.654;5.476;2023-08-20T03:01:20;102156.69;;;19.35;87.97
72921;BME280;61064;51.654;5.476;2023-08-20T03:03:46;102155.84;;;19.30;88.16
72921;BME280;61064;51.654;5.476;2023-08-20T03:06:11;102162.13;;;19.29;88.15
72921;BME280;61064;51.654;5.476;2023-08-20T03:08:37;102153.19;;;19.24;88.04
72921;BME280;61064;51.654;5.476;2023-08-20T03:11:02;102152.31;;;19.22;88.40
72921;BME280;61064;51.654;5.476;2023-08-20T03:13:28;102145.13;;;19.19;88.26
72921;BME280;61064;51.654;5.476;2023-08-20T03:15:53;102144.28;;;19.13;88.17
72921;BME280;61064;51.654;5.476;2023-08-20T03:18:18;102149.72;;;19.08;88.45
72921;BME280;61064;51.654;5.476;2023-08-20T03:20:44;102143.47;;;19.04;88.23
72921;BME280;61064;51.654;5.476;2023-08-20T03:23:09;102134.53;;;18.96;88.46
72921;BME280;61064;51.654;5.476;2023-08-20T03:25:34;102145.34;;;18.90;88.37
72921;BME280;61064;51.654;5.476;2023-08-20T03:28:00;102143.59;;;18.86;88.59
72921;BME280;61064;51.654;5.476;2023-08-20T03:30:25;102138.25;;;18.82;88.72
72921;BME280;61064;51.654;5.476;2023-08-20T03:32:51;102143.66;;;18.77;88.71
72921;BME280;61064;51.654;5.476;2023-08-20T03:35:16;102150.84;;;18.75;88.75
72921;BME280;61064;51.654;5.476;2023-08-20T03:37:41;102144.59;;;18.72;88.67
72921;BME280;61064;51.654;5.476;2023-08-20T03:40:07;102137.44;;;18.66;88.90
72921;BME280;61064;51.654;5.476;2023-08-20T03:42:33;102141.94;;;18.62;89.01
72921;BME280;61064;51.654;5.476;2023-08-20T03:44:58;102143.78;;;18.57;88.89
72921;BME280;61064;51.654;5.476;2023-08-20T03:47:23;102149.16;;;18.56;89.24
72921;BME280;61064;51.654;5.476;2023-08-20T03:49:49;102161.75;;;18.54;89.24
72921;BME280;61064;51.654;5.476;2023-08-20T03:52:14;102155.44;;;18.50;89.43
72921;BME280;61064;51.654;5.476;2023-08-20T03:54:40;102156.34;;;18.51;89.49
72921;BME280;61064;51.654;5.476;2023-08-20T03:57:05;102156.38;;;18.48;89.22
72921;BME280;61064;51.654;5.476;2023-08-20T03:59:30;102154.59;;;18.45;89.49
72921;BME280;61064;51.654;5.476;2023-08-20T04:01:56;102168.06;;;18.47;89.23
72921;BME280;61064;51.654;5.476;2023-08-20T04:04:22;102167.16;;;18.45;89.26
72921;BME280;61064;51.654;5.476;2023-08-20T04:06:47;102170.78;;;18.41;89.27
72921;BME280;61064;51.654;5.476;2023-08-20T04:09:13;102168.13;;;18.36;89.26
72921;BME280;61064;51.654;5.476;2023-08-20T04:11:38;102175.34;;;18.33;89.09
72921;BME280;61064;51.654;5.476;2023-08-20T04:14:03;102178.00;;;18.29;89.04
72921;BME280;61064;51.654;5.476;2023-08-20T04:16:29;102175.34;;;18.26;89.26
72921;BME280;61064;51.654;5.476;2023-08-20T04:18:55;102176.28;;;18.21;89.27
72921;BME280;61064;51.654;5.476;2023-08-20T04:21:20;102184.34;;;18.19;89.52
72921;BME280;61064;51.654;5.476;2023-08-20T04:23:45;102178.09;;;18.14;89.48
72921;BME280;61064;51.654;5.476;2023-08-20T04:26:11;102177.22;;;18.11;89.77
72921;BME280;61064;51.654;5.476;2023-08-20T04:28:37;102176.31;;;18.07;89.59
72921;BME280;61064;51.654;5.476;2023-08-20T04:31:02;102187.06;;;18.06;89.90
72921;BME280;61064;51.654;5.476;2023-08-20T04:33:27;102177.22;;;18.00;90.21
72921;BME280;61064;51.654;5.476;2023-08-20T04:35:53;102181.72;;;17.97;90.04
72921;BME280;61064;51.654;5.476;2023-08-20T04:38:18;102174.56;;;17.94;89.97
72921;BME280;61064;51.654;5.476;2023-08-20T04:40:47;102175.47;;;17.87;90.36
72921;BME280;61064;51.654;5.476;2023-08-20T04:43:13;102177.28;;;17.88;90.44
72921;BME280;61064;51.654;5.476;2023-08-20T04:45:42;102175.47;;;17.85;90.48
72921;BME280;61064;51.654;5.476;2023-08-20T04:48:07;102178.16;;;17.84;90.59
72921;BME280;61064;51.654;5.476;2023-08-20T04:50:33;102188.03;;;17.83;90.64
72921;BME280;61064;51.654;5.476;2023-08-20T04:52:59;102188.03;;;17.85;90.57
72921;BME280;61064;51.654;5.476;2023-08-20T04:55:25;102191.66;;;17.82;90.56
72921;BME280;61064;51.654;5.476;2023-08-20T04:57:51;102188.06;;;17.80;90.81
72921;BME280;61064;51.654;5.476;2023-08-20T05:00:16;102186.25;;;17.79;90.73
72921;BME280;61064;51.654;5.476;2023-08-20T05:02:42;102184.44;;;17.78;90.89
72921;BME280;61064;51.654;5.476;2023-08-20T05:05:07;102184.47;;;17.77;90.87
72921;BME280;61064;51.654;5.476;2023-08-20T05:07:33;102187.16;;;17.77;90.90
72921;BME280;61064;51.654;5.476;2023-08-20T05:09:58;102191.63;;;17.78;90.66
72921;BME280;61064;51.654;5.476;2023-08-20T05:12:23;102200.63;;;17.80;90.78
72921;BME280;61064;51.654;5.476;2023-08-20T05:14:49;102196.13;;;17.76;90.82
72921;BME280;61064;51.654;5.476;2023-08-20T05:17:14;102206.03;;;17.77;90.89
72921;BME280;61064;51.654;5.476;2023-08-20T05:19:39;102209.59;;;17.76;90.96
72921;BME280;61064;51.654;5.476;2023-08-20T05:22:05;102205.09;;;17.78;91.01
72921;BME280;61064;51.654;5.476;2023-08-20T05:24:30;102205.09;;;17.78;91.00
72921;BME280;61064;51.654;5.476;2023-08-20T05:27:10;102213.19;;;17.76;91.23
72921;BME280;61064;51.654;5.476;2023-08-20T05:29:37;102211.38;;;17.81;91.09
72921;BME280;61064;51.654;5.476;2023-08-20T05:32:02;102220.34;;;17.80;91.13
72921;BME280;61064;51.654;5.476;2023-08-20T05:34:27;102224.84;;;17.83;91.20
72921;BME280;61064;51.654;5.476;2023-08-20T05:36:53;102220.34;;;17.85;91.35
72921;BME280;61064;51.654;5.476;2023-08-20T05:39:18;102224.81;;;17.84;91.21
72921;BME280;61064;51.654;5.476;2023-08-20T05:41:44;102216.75;;;17.86;91.38
72921;BME280;61064;51.654;5.476;2023-08-20T05:44:10;102224.81;;;17.92;91.38
72921;BME280;61064;51.654;5.476;2023-08-20T05:46:35;102214.03;;;17.97;91.38
72921;BME280;61064;51.654;5.476;2023-08-20T05:49:01;102217.59;;;18.06;91.19
72921;BME280;61064;51.654;5.476;2023-08-20T05:51:26;102221.19;;;18.16;91.22
72921;BME280;61064;51.654;5.476;2023-08-20T05:53:51;102223.84;;;18.26;90.89
72921;BME280;61064;51.654;5.476;2023-08-20T05:56:17;102222.91;;;18.37;90.76
72921;BME280;61064;51.654;5.476;2023-08-20T05:58:42;102228.22;;;18.52;90.68
72921;BME280;61064;51.654;5.476;2023-08-20T06:01:07;102223.72;;;18.63;90.55
72921;BME280;61064;51.654;5.476;2023-08-20T06:03:33;102215.59;;;18.72;90.28
72921;BME280;61064;51.654;5.476;2023-08-20T06:05:58;102224.53;;;18.83;89.92
72921;BME280;61064;51.654;5.476;2023-08-20T06:08:24;102228.94;;;18.98;89.97
72921;BME280;61064;51.654;5.476;2023-08-20T06:10:50;102228.84;;;19.10;89.64
72921;BME280;61064;51.654;5.476;2023-08-20T06:13:15;102226.09;;;19.19;89.37
72921;BME280;61064;51.654;5.476;2023-08-20T06:15:41;102226.00;;;19.33;88.88
72921;BME280;61064;51.654;5.476;2023-08-20T06:18:06;102212.41;;;19.40;88.46
72921;BME280;61064;51.654;5.476;2023-08-20T06:20:32;102207.84;;;19.53;88.28
72921;BME280;61064;51.654;5.476;2023-08-20T06:22:57;102216.75;;;19.66;87.99
72921;BME280;61064;51.654;5.476;2023-08-20T06:25:23;102215.69;;;19.80;87.65
72921;BME280;61064;51.654;5.476;2023-08-20T06:27:48;102213.78;;;19.95;87.25
72921;BME280;61064;51.654;5.476;2023-08-20T06:30:13;102216.28;;;20.10;86.91
72921;BME280;61064;51.654;5.476;2023-08-20T06:32:39;102221.53;;;20.25;86.41
72921;BME280;61064;51.654;5.476;2023-08-20T06:35:05;102221.41;;;20.37;85.92
72921;BME280;61064;51.654;5.476;2023-08-20T06:37:30;102230.28;;;20.50;85.72
72921;BME280;61064;51.654;5.476;2023-08-20T06:39:56;102229.19;;;20.63;85.51
72921;BME280;61064;51.654;5.476;2023-08-20T06:42:21;102225.41;;;20.76;84.86
72921;BME280;61064;51.654;5.476;2023-08-20T06:44:46;102218.03;;;20.87;84.28
72921;BME280;61064;51.654;5.476;2023-08-20T06:47:12;102208.13;;;20.88;83.84
72921;BME280;61064;51.654;5.476;2023-08-20T06:49:38;102215.25;;;20.92;83.98
72921;BME280;61064;51.654;5.476;2023-08-20T06:52:03;102220.56;;;20.99;84.06
72921;BME280;61064;51.654;5.476;2023-08-20T06:54:29;102221.31;;;21.12;84.03
72921;BME280;61064;51.654;5.476;2023-08-20T06:56:54;102223.81;;;21.26;83.49
72921;BME280;61064;51.654;5.476;2023-08-20T06:59:20;102216.38;;;21.40;82.71
72921;BME280;61064;51.654;5.476;2023-08-20T07:01:45;102220.66;;;21.51;81.86
72921;BME280;61064;51.654;5.476;2023-08-20T07:04:10;102222.31;;;21.62;82.04
72921;BME280;61064;51.654;5.476;2023-08-20T07:06:38;102220.25;;;21.76;81.33
72921;BME280;61064;51.654;5.476;2023-08-20T07:09:03;102223.63;;;21.88;80.91
72921;BME280;61064;51.654;5.476;2023-08-20T07:11:29;102229.81;;;21.98;80.18
72921;BME280;61064;51.654;5.476;2023-08-20T07:13:54;102225.16;;;22.06;79.80
72921;BME280;61064;51.654;5.476;2023-08-20T07:16:19;102230.34;;;22.17;79.47
72921;BME280;61064;51.654;5.476;2023-08-20T07:18:45;102239.13;;;22.29;79.32
72921;BME280;61064;51.654;5.476;2023-08-20T07:21:10;102231.63;;;22.42;78.87
72921;BME280;61064;51.654;5.476;2023-08-20T07:23:36;102231.41;;;22.53;78.47
72921;BME280;61064;51.654;5.476;2023-08-20T07:26:09;102232.06;;;22.65;78.28
72921;BME280;61064;51.654;5.476;2023-08-20T07:28:35;102231.72;;;22.82;78.02
72921;BME280;61064;51.654;5.476;2023-08-20T07:31:19;102232.25;;;22.98;77.27
72921;BME280;61064;51.654;5.476;2023-08-20T07:33:48;102229.31;;;23.08;76.64
72921;BME280;61064;51.654;5.476;2023-08-20T07:36:14;102219.94;;;23.21;76.03
72921;BME280;61064;51.654;5.476;2023-08-20T07:38:40;102225.09;;;23.34;75.58
72921;BME280;61064;51.654;5.476;2023-08-20T07:41:08;102228.44;;;23.45;75.09
72921;BME280;61064;51.654;5.476;2023-08-20T07:43:33;102229.16;;;23.53;74.56
72921;BME280;61064;51.654;5.476;2023-08-20T07:45:59;102236.06;;;23.66;73.79
72921;BME280;61064;51.654;5.476;2023-08-20T07:48:24;102236.84;;;23.71;73.86
72921;BME280;61064;51.654;5.476;2023-08-20T07:50:49;102236.72;;;23.76;73.16
72921;BME280;61064;51.654;5.476;2023-08-20T07:53:15;102239.38;;;23.79;72.81
72921;BME280;61064;51.654;5.476;2023-08-20T07:55:40;102243.81;;;23.81;72.17
72921;BME280;61064;51.654;5.476;2023-08-20T07:58:05;102239.13;;;23.88;72.03
72921;BME280;61064;51.654;5.476;2023-08-20T08:00:31;102246.06;;;23.99;71.44
72921;BME280;61064;51.654;5.476;2023-08-20T08:02:56;102240.28;;;24.12;71.28
72921;BME280;61064;51.654;5.476;2023-08-20T08:05:22;102239.19;;;24.19;70.56
72921;BME280;61064;51.654;5.476;2023-08-20T08:07:47;102247.94;;;24.30;70.36
72921;BME280;61064;51.654;5.476;2023-08-20T08:10:12;102245.91;;;24.38;69.99
72921;BME280;61064;51.654;5.476;2023-08-20T08:12:41;102246.63;;;24.44;69.93
72921;BME280;61064;51.654;5.476;2023-08-20T08:15:06;102236.34;;;24.54;69.74
72921;BME280;61064;51.654;5.476;2023-08-20T08:17:32;102250.38;;;24.71;68.38
72921;BME280;61064;51.654;5.476;2023-08-20T08:19:57;102244.59;;;24.82;67.72
72921;BME280;61064;51.654;5.476;2023-08-20T08:22:23;102255.19;;;24.93;67.30
72921;BME280;61064;51.654;5.476;2023-08-20T08:24:49;102245.00;;;24.99;66.68
72921;BME280;61064;51.654;5.476;2023-08-20T08:27:14;102258.31;;;25.08;66.19
72921;BME280;61064;51.654;5.476;2023-08-20T08:29:40;102255.59;;;25.08;66.49
72921;BME280;61064;51.654;5.476;2023-08-20T08:32:05;102257.00;;;25.21;66.28
72921;BME280;61064;51.654;5.476;2023-08-20T08:34:30;102252.13;;;25.31;66.21
72921;BME280;61064;51.654;5.476;2023-08-20T08:36:56;102252.63;;;25.44;65.46
72921;BME280;61064;51.654;5.476;2023-08-20T08:39:21;102253.22;;;25.53;64.72
72921;BME280;61064;51.654;5.476;2023-08-20T08:41:49;102261.34;;;25.56;65.05
72921;BME280;61064;51.654;5.476;2023-08-20T08:44:16;102263.75;;;25.65;65.08
72921;BME280;61064;51.654;5.476;2023-08-20T08:46:42;102261.53;;;25.77;63.56
72921;BME280;61064;51.654;5.476;2023-08-20T08:49:08;102266.75;;;25.84;63.05
72921;BME280;61064;51.654;5.476;2023-08-20T08:51:34;102260.19;;;25.90;62.81
72921;BME280;61064;51.654;5.476;2023-08-20T08:54:02;102258.91;;;26.00;61.89
72921;BME280;61064;51.654;5.476;2023-08-20T08:56:28;102255.03;;;26.07;61.48
72921;BME280;61064;51.654;5.476;2023-08-20T08:58:54;102249.28;;;26.15;61.09
72921;BME280;61064;51.654;5.476;2023-08-20T09:01:19;102250.50;;;26.32;60.60
72921;BME280;61064;51.654;5.476;2023-08-20T09:03:46;102248.25;;;26.43;60.32
72921;BME280;61064;51.654;5.476;2023-08-20T09:06:12;102256.97;;;26.53;59.82
72921;BME280;61064;51.654;5.476;2023-08-20T09:08:37;102258.50;;;26.62;59.38
72921;BME280;61064;51.654;5.476;2023-08-20T09:11:03;102261.75;;;26.71;58.76
72921;BME280;61064;51.654;5.476;2023-08-20T09:13:39;102260.81;;;26.72;58.10
72921;BME280;61064;51.654;5.476;2023-08-20T09:16:06;102257.09;;;26.75;57.64
72921;BME280;61064;51.654;5.476;2023-08-20T09:18:43;102253.47;;;26.74;57.75
72921;BME280;61064;51.654;5.476;2023-08-20T09:21:10;102262.13;;;26.85;57.99
72921;BME280;61064;51.654;5.476;2023-08-20T09:23:37;102260.84;;;26.96;57.43
72921;BME280;61064;51.654;5.476;2023-08-20T09:26:04;102263.91;;;27.10;57.25
72921;BME280;61064;51.654;5.476;2023-08-20T09:28:40;102259.78;;;27.21;56.75
72921;BME280;61064;51.654;5.476;2023-08-20T09:31:06;102271.97;;;27.36;55.95
72921;BME280;61064;51.654;5.476;2023-08-20T09:33:31;102267.91;;;27.46;54.97
72921;BME280;61064;51.654;5.476;2023-08-20T09:35:57;102258.38;;;27.56;54.27
72921;BME280;61064;51.654;5.476;2023-08-20T09:38:23;102253.47;;;27.64;53.56
72921;BME280;61064;51.654;5.476;2023-08-20T09:40:51;102269.34;;;27.77;52.49
72921;BME280;61064;51.654;5.476;2023-08-20T09:43:18;102260.34;;;27.75;52.88
72921;BME280;61064;51.654;5.476;2023-08-20T09:45:43;102255.63;;;27.78;52.30
72921;BME280;61064;51.654;5.476;2023-08-20T09:48:17;102264.47;;;27.85;51.96
72921;BME280;61064;51.654;5.476;2023-08-20T09:50:46;102263.53;;;27.86;51.90
72921;BME280;61064;51.654;5.476;2023-08-20T09:53:21;102258.63;;;27.92;51.59
72921;BME280;61064;51.654;5.476;2023-08-20T09:55:50;102267.00;;;28.09;51.48
72921;BME280;61064;51.654;5.476;2023-08-20T09:58:15;102262.97;;;28.20;51.25
72921;BME280;61064;51.654;5.476;2023-08-20T10:00:42;102258.16;;;28.25;50.91
72921;BME280;61064;51.654;5.476;2023-08-20T10:03:07;102258.56;;;28.36;50.51
72921;BME280;61064;51.654;5.476;2023-08-20T10:05:33;102259.78;;;28.49;49.94
72921;BME280;61064;51.654;5.476;2023-08-20T10:08:00;102259.22;;;28.61;49.20
72921;BME280;61064;51.654;5.476;2023-08-20T10:10:26;102254.34;;;28.68;49.25
72921;BME280;61064;51.654;5.476;2023-08-20T10:12:52;102259.50;;;28.75;49.33
72921;BME280;61064;51.654;5.476;2023-08-20T10:15:17;102253.13;;;28.75;49.06
72921;BME280;61064;51.654;5.476;2023-08-20T10:17:47;102251.78;;;28.83;48.65
72921;BME280;61064;51.654;5.476;2023-08-20T10:20:15;102259.78;;;28.88;48.59
72921;BME280;61064;51.654;5.476;2023-08-20T10:22:44;102263.72;;;29.01;48.63
72921;BME280;61064;51.654;5.476;2023-08-20T10:25:30;102264.09;;;29.12;48.51
72921;BME280;61064;51.654;5.476;2023-08-20T10:28:21;102253.63;;;29.20;49.02
72921;BME280;61064;51.654;5.476;2023-08-20T10:31:07;102258.56;;;29.32;49.06
72921;BME280;61064;51.654;5.476;2023-08-20T10:33:37;102259.44;;;29.52;48.05
72921;BME280;61064;51.654;5.476;2023-08-20T10:36:13;102257.09;;;29.61;47.28
72921;BME280;61064;51.654;5.476;2023-08-20T10:38:39;102248.56;;;29.67;47.22
72921;BME280;61064;51.654;5.476;2023-08-20T10:41:08;102256.41;;;29.75;46.17
72921;BME280;61064;51.654;5.476;2023-08-20T10:43:46;102250.47;;;29.65;46.55
72921;BME280;61064;51.654;5.476;2023-08-20T10:46:19;102263.31;;;29.65;46.30
72921;BME280;61064;51.654;5.476;2023-08-20T10:48:53;102259.59;;;29.66;45.64
72921;BME280;61064;51.654;5.476;2023-08-20T10:51:37;102258.56;;;29.68;45.72
72921;BME280;61064;51.654;5.476;2023-08-20T10:54:07;102259.69;;;29.82;45.54
72921;BME280;61064;51.654;5.476;2023-08-20T10:59:30;102254.75;;;30.07;44.40
72921;BME280;61064;51.654;5.476;2023-08-20T11:01:58;102252.41;;;30.16;43.90
72921;BME280;61064;51.654;5.476;2023-08-20T11:04:32;102256.84;;;30.19;43.90
72921;BME280;61064;51.654;5.476;2023-08-20T11:06:58;102253.53;;;30.30;43.82
72921;BME280;61064;51.654;5.476;2023-08-20T11:09:26;102256.59;;;30.41;43.52
72921;BME280;61064;51.654;5.476;2023-08-20T11:11:52;102260.31;;;30.40;43.28
72921;BME280;61064;51.654;5.476;2023-08-20T11:14:19;102258.59;;;30.37;43.08
72921;BME280;61064;51.654;5.476;2023-08-20T11:16:46;102255.94;;;30.36;42.73
72921;BME280;61064;51.654;5.476;2023-08-20T11:19:12;102259.03;;;30.30;42.91
72921;BME280;61064;51.654;5.476;2023-08-20T11:21:39;102250.19;;;30.40;42.51
72921;BME280;61064;51.654;5.476;2023-08-20T11:24:06;102255.22;;;30.49;42.92
72921;BME280;61064;51.654;5.476;2023-08-20T11:26:35;102243.75;;;30.59;42.41
72921;BME280;61064;51.654;5.476;2023-08-20T11:29:05;102246.22;;;30.63;42.95
72921;BME280;61064;51.654;5.476;2023-08-20T11:31:31;102254.44;;;30.80;43.27
72921;BME280;61064;51.654;5.476;2023-08-20T11:33:57;102249.84;;;30.96;42.40
72921;BME280;61064;51.654;5.476;2023-08-20T11:36:23;102250.53;;;31.00;41.69
72921;BME280;61064;51.654;5.476;2023-08-20T11:38:50;102246.19;;;30.96;41.80
72921;BME280;61064;51.654;5.476;2023-08-20T11:41:17;102244.69;;;30.90;41.59
72921;BME280;61064;51.654;5.476;2023-08-20T11:43:42;102244.13;;;30.84;41.43
72921;BME280;61064;51.654;5.476;2023-08-20T11:46:13;102247.81;;;30.67;41.33
72921;BME280;61064;51.654;5.476;2023-08-20T11:49:04;102237.25;;;30.60;42.12
72921;BME280;61064;51.654;5.476;2023-08-20T11:51:37;102240.28;;;30.71;42.13
72921;BME280;61064;51.654;5.476;2023-08-20T11:54:08;102238.81;;;30.81;41.65
72921;BME280;61064;51.654;5.476;2023-08-20T11:56:34;102230.09;;;30.73;41.45
72921;BME280;61064;51.654;5.476;2023-08-20T11:59:00;102226.56;;;30.71;41.43
72921;BME280;61064;51.654;5.476;2023-08-20T12:01:30;102225.91;;;30.66;41.40
72921;BME280;61064;51.654;5.476;2023-08-20T12:04:06;102213.41;;;30.60;41.54
72921;BME280;61064;51.654;5.476;2023-08-20T12:06:33;102217.06;;;30.61;41.95
72921;BME280;61064;51.654;5.476;2023-08-20T12:09:00;102207.75;;;30.63;42.14
72921;BME280;61064;51.654;5.476;2023-08-20T12:11:26;102210.06;;;30.71;41.68
72921;BME280;61064;51.654;5.476;2023-08-20T12:13:54;102195.63;;;30.67;41.76
72921;BME280;61064;51.654;5.476;2023-08-20T12:16:22;102202.72;;;30.71;41.40
72921;BME280;61064;51.654;5.476;2023-08-20T12:18:47;102203.19;;;30.79;41.25
72921;BME280;61064;51.654;5.476;2023-08-20T12:21:13;102192.38;;;30.92;41.22
72921;BME280;61064;51.654;5.476;2023-08-20T12:23:39;102187.22;;;31.02;40.80
72921;BME280;61064;51.654;5.476;2023-08-20T12:26:04;102199.22;;;31.16;40.75
72921;BME280;61064;51.654;5.476;2023-08-20T12:28:29;102189.09;;;31.17;40.44
72921;BME280;61064;51.654;5.476;2023-08-20T12:30:58;102197.00;;;31.23;40.51
72921;BME280;61064;51.654;5.476;2023-08-20T12:33:23;102199.84;;;31.21;40.48
72921;BME280;61064;51.654;5.476;2023-08-20T12:35:49;102198.59;;;31.11;40.62
72921;BME280;61064;51.654;5.476;2023-08-20T12:38:15;102186.34;;;31.01;40.80
72921;BME280;61064;51.654;5.476;2023-08-20T12:40:40;102197.47;;;31.15;40.98
72921;BME280;61064;51.654;5.476;2023-08-20T12:43:07;102199.91;;;31.35;40.38
72921;BME280;61064;51.654;5.476;2023-08-20T12:45:32;102194.47;;;31.50;40.10
72921;BME280;61064;51.654;5.476;2023-08-20T12:47:59;102195.84;;;31.58;39.74
72921;BME280;61064;51.654;5.476;2023-08-20T12:50:24;102200.25;;;31.61;39.39